History Data

Date (GMT-7:00) CPM ACPM uSv/h Latitude Longitude Altitude CO CO2 TVOC HCHO Air Pressure Temperature Humidity Type
2026-02-08 09:33:43 18 17.10 0.090000 41.649648 41.62752893 0 0 0 0 0 0 0 0 STD5.60
2026-02-08 09:28:41 13 17.90 0.065000 41.649648 41.62752893 0 0 0 0 0 0 0 0 STD5.60
2026-02-08 09:23:38 12 18.10 0.060000 41.649648 41.62752893 0 0 0 0 0 0 0 0 STD5.60
2026-02-08 09:18:37 17 17.50 0.085000 41.649648 41.62752893 0 0 0 0 0 0 0 0 STD5.60
2026-02-08 09:13:32 18 16.90 0.090000 41.649648 41.62752893 0 0 0 0 0 0 0 0 STD5.60
2026-02-08 09:08:30 22 16.60 0.110000 41.649648 41.62752893 0 0 0 0 0 0 0 0 STD5.60
2026-02-08 09:03:28 20 17.50 0.100000 41.649648 41.62752893 0 0 0 0 0 0 0 0 STD5.60
2026-02-08 08:58:26 24 19.00 0.120000 41.649648 41.62752893 0 0 0 0 0 0 0 0 STD5.60
2026-02-08 08:53:24 19 19.40 0.095000 41.649648 41.62752893 0 0 0 0 0 0 0 0 STD5.60
2026-02-08 08:48:23 21 18.60 0.105000 41.649648 41.62752893 0 0 0 0 0 0 0 0 STD5.60
2026-02-08 08:43:19 12 17.80 0.060000 41.649648 41.62752893 0 0 0 0 0 0 0 0 STD5.60
2026-02-08 08:38:18 18 18.10 0.090000 41.649648 41.62752893 0 0 0 0 0 0 0 0 STD5.60
2026-02-08 08:33:16 16 17.80 0.080000 41.649648 41.62752893 0 0 0 0 0 0 0 0 STD5.60
2026-02-08 08:28:14 20 18.10 0.100000 41.649648 41.62752893 0 0 0 0 0 0 0 0 STD5.60
2026-02-08 08:23:12 19 19.40 0.095000 41.649648 41.62752893 0 0 0 0 0 0 0 0 STD5.60
2026-02-08 08:18:09 24 19.50 0.120000 41.649648 41.62752893 0 0 0 0 0 0 0 0 STD5.60
2026-02-08 08:13:06 13 19.60 0.065000 41.649648 41.62752893 0 0 0 0 0 0 0 0 STD5.60
2026-02-08 08:08:04 17 18.80 0.085000 41.649648 41.62752893 0 0 0 0 0 0 0 0 STD5.60
2026-02-08 08:03:01 13 17.80 0.065000 41.649648 41.62752893 0 0 0 0 0 0 0 0 STD5.60
2026-02-08 07:57:59 17 18.90 0.085000 41.649648 41.62752893 0 0 0 0 0 0 0 0 STD5.60
2026-02-08 07:52:58 18 18.00 0.090000 41.649648 41.62752893 0 0 0 0 0 0 0 0 STD5.60
2026-02-08 07:47:55 19 16.10 0.095000 41.649648 41.62752893 0 0 0 0 0 0 0 0 STD5.60
2026-02-08 07:42:53 17 16.80 0.085000 41.649648 41.62752893 0 0 0 0 0 0 0 0 STD5.60
2026-02-08 07:37:52 23 18.00 0.115000 41.649648 41.62752893 0 0 0 0 0 0 0 0 STD5.60
2026-02-08 07:32:50 20 18.40 0.100000 41.649648 41.62752893 0 0 0 0 0 0 0 0 STD5.60
2026-02-08 07:27:47 18 17.40 0.090000 41.649648 41.62752893 0 0 0 0 0 0 0 0 STD5.60
2026-02-08 07:22:46 10 16.80 0.050000 41.649648 41.62752893 0 0 0 0 0 0 0 0 STD5.60
2026-02-08 07:17:44 22 19.00 0.110000 41.649648 41.62752893 0 0 0 0 0 0 0 0 STD5.60
2026-02-08 07:12:40 16 18.90 0.080000 41.649648 41.62752893 0 0 0 0 0 0 0 0 STD5.60
2026-02-08 07:07:38 11 18.00 0.055000 41.649648 41.62752893 0 0 0 0 0 0 0 0 STD5.60
2026-02-08 07:02:36 23 19.10 0.115000 41.649648 41.62752893 0 0 0 0 0 0 0 0 STD5.60
2026-02-08 06:57:34 21 18.50 0.105000 41.649648 41.62752893 0 0 0 0 0 0 0 0 STD5.60
2026-02-08 06:52:32 14 17.90 0.070000 41.649648 41.62752893 0 0 0 0 0 0 0 0 STD5.60
2026-02-08 06:47:30 15 17.80 0.075000 41.649648 41.62752893 0 0 0 0 0 0 0 0 STD5.60
2026-02-08 06:42:28 23 17.40 0.115000 41.649648 41.62752893 0 0 0 0 0 0 0 0 STD5.60
2026-02-08 06:37:26 13 18.60 0.065000 41.649648 41.62752893 0 0 0 0 0 0 0 0 STD5.60
2026-02-08 06:32:24 22 20.40 0.110000 41.649648 41.62752893 0 0 0 0 0 0 0 0 STD5.60
2026-02-08 06:27:22 20 19.40 0.100000 41.649648 41.62752893 0 0 0 0 0 0 0 0 STD5.60
2026-02-08 06:22:20 18 18.50 0.090000 41.649648 41.62752893 0 0 0 0 0 0 0 0 STD5.60
2026-02-08 06:17:18 11 18.00 0.055000 41.649648 41.62752893 0 0 0 0 0 0 0 0 STD5.60
2026-02-08 06:12:13 17 19.50 0.085000 41.649648 41.62752893 0 0 0 0 0 0 0 0 STD5.60
2026-02-08 06:07:11 20 20.00 0.100000 41.649648 41.62752893 0 0 0 0 0 0 0 0 STD5.60
2026-02-08 06:02:09 23 17.30 0.115000 41.649648 41.62752893 0 0 0 0 0 0 0 0 STD5.60
2026-02-08 05:57:07 12 16.00 0.060000 41.649648 41.62752893 0 0 0 0 0 0 0 0 STD5.60
2026-02-08 05:52:05 22 16.20 0.110000 41.649648 41.62752893 0 0 0 0 0 0 0 0 STD5.60
2026-02-08 05:47:03 10 17.90 0.050000 41.649648 41.62752893 0 0 0 0 0 0 0 0 STD5.60
2026-02-08 05:42:01 23 17.40 0.115000 41.649648 41.62752893 0 0 0 0 0 0 0 0 STD5.60
2026-02-08 05:37:00 18 16.20 0.090000 41.649648 41.62752893 0 0 0 0 0 0 0 0 STD5.60
2026-02-08 05:31:57 17 14.30 0.085000 41.649648 41.62752893 0 0 0 0 0 0 0 0 STD5.60
2026-02-08 05:26:55 16 15.00 0.080000 41.649648 41.62752893 0 0 0 0 0 0 0 0 STD5.60
2026-02-08 05:21:53 17 17.60 0.085000 41.649648 41.62752893 0 0 0 0 0 0 0 0 STD5.60
2026-02-08 05:16:51 21 18.60 0.105000 41.649648 41.62752893 0 0 0 0 0 0 0 0 STD5.60
2026-02-08 05:11:47 26 17.10 0.130000 41.649648 41.62752893 0 0 0 0 0 0 0 0 STD5.60
2026-02-08 05:06:46 20 14.10 0.100000 41.649648 41.62752893 0 0 0 0 0 0 0 0 STD5.60
2026-02-08 05:01:43 12 15.20 0.060000 41.649648 41.62752893 0 0 0 0 0 0 0 0 STD5.60
2026-02-08 04:56:41 15 19.50 0.075000 41.649648 41.62752893 0 0 0 0 0 0 0 0 STD5.60
2026-02-08 04:51:39 20 20.50 0.100000 41.649648 41.62752893 0 0 0 0 0 0 0 0 STD5.60
2026-02-08 04:46:38 17 17.00 0.085000 41.649648 41.62752893 0 0 0 0 0 0 0 0 STD5.60
2026-02-08 04:41:35 8 16.40 0.040000 41.649648 41.62752893 0 0 0 0 0 0 0 0 STD5.60
2026-02-08 04:36:34 19 19.20 0.095000 41.649648 41.62752893 0 0 0 0 0 0 0 0 STD5.60
2026-02-08 04:31:31 18 19.70 0.090000 41.649648 41.62752893 0 0 0 0 0 0 0 0 STD5.60
2026-02-08 04:26:29 15 18.00 0.075000 41.649648 41.62752893 0 0 0 0 0 0 0 0 STD5.60
2026-02-08 04:21:27 14 16.90 0.070000 41.649648 41.62752893 0 0 0 0 0 0 0 0 STD5.60
2026-02-08 04:16:24 21 16.90 0.105000 41.649648 41.62752893 0 0 0 0 0 0 0 0 STD5.60
2026-02-08 04:11:20 14 17.20 0.070000 41.649648 41.62752893 0 0 0 0 0 0 0 0 STD5.60
2026-02-08 04:06:21 25 16.80 0.125000 41.649648 41.62752893 0 0 0 0 0 0 0 0 STD5.60
2026-02-08 04:01:15 18 16.80 0.090000 41.649648 41.62752893 0 0 0 0 0 0 0 0 STD5.60
2026-02-08 03:56:13 15 16.20 0.075000 41.649648 41.62752893 0 0 0 0 0 0 0 0 STD5.60
2026-02-08 03:51:11 14 16.60 0.070000 41.649648 41.62752893 0 0 0 0 0 0 0 0 STD5.60
2026-02-08 03:46:10 22 17.70 0.110000 41.649648 41.62752893 0 0 0 0 0 0 0 0 STD5.60
2026-02-08 03:41:08 29 18.00 0.145000 41.649648 41.62752893 0 0 0 0 0 0 0 0 STD5.60
2026-02-08 03:36:06 14 16.90 0.070000 41.649648 41.62752893 0 0 0 0 0 0 0 0 STD5.60
2026-02-08 03:31:03 21 17.50 0.105000 41.649648 41.62752893 0 0 0 0 0 0 0 0 STD5.60
2026-02-08 03:26:03 15 19.10 0.075000 41.649648 41.62752893 0 0 0 0 0 0 0 0 STD5.60
2026-02-08 03:20:59 17 19.80 0.085000 41.649648 41.62752893 0 0 0 0 0 0 0 0 STD5.60
2026-02-08 03:15:57 22 20.30 0.110000 41.649648 41.62752893 0 0 0 0 0 0 0 0 STD5.60
2026-02-08 03:10:53 20 20.40 0.100000 41.649648 41.62752893 0 0 0 0 0 0 0 0 STD5.60
2026-02-08 03:05:51 19 18.60 0.095000 41.649648 41.62752893 0 0 0 0 0 0 0 0 STD5.60
2026-02-08 03:00:50 9 17.00 0.045000 41.649648 41.62752893 0 0 0 0 0 0 0 0 STD5.60
2026-02-08 02:55:47 13 18.60 0.065000 41.649648 41.62752893 0 0 0 0 0 0 0 0 STD5.60
2026-02-08 02:50:45 15 17.80 0.075000 41.649648 41.62752893 0 0 0 0 0 0 0 0 STD5.60
2026-02-08 02:45:43 14 17.00 0.070000 41.649648 41.62752893 0 0 0 0 0 0 0 0 STD5.60
2026-02-08 02:40:40 17 18.70 0.085000 41.649648 41.62752893 0 0 0 0 0 0 0 0 STD5.60
2026-02-08 02:35:39 23 19.90 0.115000 41.649648 41.62752893 0 0 0 0 0 0 0 0 STD5.60
2026-02-08 02:30:37 21 18.30 0.105000 41.649648 41.62752893 0 0 0 0 0 0 0 0 STD5.60
2026-02-08 02:25:35 13 17.60 0.065000 41.649648 41.62752893 0 0 0 0 0 0 0 0 STD5.60
2026-02-08 02:20:33 17 16.50 0.085000 41.649648 41.62752893 0 0 0 0 0 0 0 0 STD5.60
2026-02-08 02:15:31 13 13.80 0.065000 41.649648 41.62752893 0 0 0 0 0 0 0 0 STD5.60
2026-02-08 02:10:27 11 15.10 0.055000 41.649648 41.62752893 0 0 0 0 0 0 0 0 STD5.60
2026-02-08 02:05:25 20 17.20 0.100000 41.649648 41.62752893 0 0 0 0 0 0 0 0 STD5.60
2026-02-08 02:00:22 15 18.00 0.075000 41.649648 41.62752893 0 0 0 0 0 0 0 0 STD5.60
2026-02-08 01:55:20 19 17.40 0.095000 41.649648 41.62752893 0 0 0 0 0 0 0 0 STD5.60
2026-02-08 01:50:18 19 17.00 0.095000 41.649648 41.62752893 0 0 0 0 0 0 0 0 STD5.60
2026-02-08 01:45:17 20 18.20 0.100000 41.649648 41.62752893 0 0 0 0 0 0 0 0 STD5.60
2026-02-08 01:40:14 21 18.20 0.105000 41.649648 41.62752893 0 0 0 0 0 0 0 0 STD5.60
2026-02-08 01:35:12 17 15.40 0.085000 41.649648 41.62752893 0 0 0 0 0 0 0 0 STD5.60
2026-02-08 01:30:09 10 15.20 0.050000 41.649648 41.62752893 0 0 0 0 0 0 0 0 STD5.60
2026-02-08 01:25:07 20 18.30 0.100000 41.649648 41.62752893 0 0 0 0 0 0 0 0 STD5.60
2026-02-08 01:20:05 14 20.10 0.070000 41.649648 41.62752893 0 0 0 0 0 0 0 0 STD5.60
2026-02-08 01:15:03 23 18.60 0.115000 41.649648 41.62752893 0 0 0 0 0 0 0 0 STD5.60
2026-02-08 01:09:59 21 19.50 0.105000 41.649648 41.62752893 0 0 0 0 0 0 0 0 STD5.60
2026-02-08 01:04:57 29 19.90 0.145000 41.649648 41.62752893 0 0 0 0 0 0 0 0 STD5.60
2026-02-08 00:59:55 13 17.90 0.065000 41.649648 41.62752893 0 0 0 0 0 0 0 0 STD5.60
2026-02-08 00:54:53 19 16.70 0.095000 41.649648 41.62752893 0 0 0 0 0 0 0 0 STD5.60
2026-02-08 00:49:51 10 17.20 0.050000 41.649648 41.62752893 0 0 0 0 0 0 0 0 STD5.60
2026-02-08 00:44:49 17 17.60 0.085000 41.649648 41.62752893 0 0 0 0 0 0 0 0 STD5.60
2026-02-08 00:39:46 19 16.50 0.095000 41.649648 41.62752893 0 0 0 0 0 0 0 0 STD5.60
2026-02-08 00:34:44 14 15.10 0.070000 41.649648 41.62752893 0 0 0 0 0 0 0 0 STD5.60
2026-02-08 00:29:42 10 16.80 0.050000 41.649648 41.62752893 0 0 0 0 0 0 0 0 STD5.60
2026-02-08 00:24:40 27 19.00 0.135000 41.649648 41.62752893 0 0 0 0 0 0 0 0 STD5.60
2026-02-08 00:19:38 18 18.10 0.090000 41.649648 41.62752893 0 0 0 0 0 0 0 0 STD5.60
2026-02-08 00:14:36 9 18.50 0.045000 41.649648 41.62752893 0 0 0 0 0 0 0 0 STD5.60
2026-02-08 00:09:32 18 18.40 0.090000 41.649648 41.62752893 0 0 0 0 0 0 0 0 STD5.60
2026-02-08 00:04:30 14 17.10 0.070000 41.649648 41.62752893 0 0 0 0 0 0 0 0 STD5.60
2026-02-07 23:59:28 13 17.10 0.065000 41.649648 41.62752893 0 0 0 0 0 0 0 0 STD5.60
2026-02-07 23:54:26 11 18.10 0.055000 41.649648 41.62752893 0 0 0 0 0 0 0 0 STD5.60
2026-02-07 23:49:24 18 19.80 0.090000 41.649648 41.62752893 0 0 0 0 0 0 0 0 STD5.60
2026-02-07 23:44:22 23 17.40 0.115000 41.649648 41.62752893 0 0 0 0 0 0 0 0 STD5.60
2026-02-07 23:39:19 14 16.60 0.070000 41.649648 41.62752893 0 0 0 0 0 0 0 0 STD5.60
2026-02-07 23:34:18 16 17.80 0.080000 41.649648 41.62752893 0 0 0 0 0 0 0 0 STD5.60
2026-02-07 23:29:16 14 18.00 0.070000 41.649648 41.62752893 0 0 0 0 0 0 0 0 STD5.60
2026-02-07 23:24:14 21 18.30 0.105000 41.649648 41.62752893 0 0 0 0 0 0 0 0 STD5.60
2026-02-07 23:19:11 22 17.50 0.110000 41.649648 41.62752893 0 0 0 0 0 0 0 0 STD5.60
2026-02-07 23:14:09 17 19.00 0.085000 41.649648 41.62752893 0 0 0 0 0 0 0 0 STD5.60
2026-02-07 23:09:05 10 20.10 0.050000 41.649648 41.62752893 0 0 0 0 0 0 0 0 STD5.60
2026-02-07 23:04:04 18 19.20 0.090000 41.649648 41.62752893 0 0 0 0 0 0 0 0 STD5.60
2026-02-07 22:59:01 11 19.50 0.055000 41.649648 41.62752893 0 0 0 0 0 0 0 0 STD5.60
2026-02-07 22:53:59 18 19.00 0.090000 41.649648 41.62752893 0 0 0 0 0 0 0 0 STD5.60
2026-02-07 22:48:57 14 18.60 0.070000 41.649648 41.62752893 0 0 0 0 0 0 0 0 STD5.60
2026-02-07 22:43:55 15 18.50 0.075000 41.649648 41.62752893 0 0 0 0 0 0 0 0 STD5.60
2026-02-07 22:38:52 18 18.30 0.090000 41.649648 41.62752893 0 0 0 0 0 0 0 0 STD5.60
2026-02-07 22:33:50 22 19.60 0.110000 41.649648 41.62752893 0 0 0 0 0 0 0 0 STD5.60
2026-02-07 22:28:48 24 19.70 0.120000 41.649648 41.62752893 0 0 0 0 0 0 0 0 STD5.60
2026-02-07 22:23:46 22 18.20 0.110000 41.649648 41.62752893 0 0 0 0 0 0 0 0 STD5.60
2026-02-07 22:18:45 19 18.00 0.095000 41.649648 41.62752893 0 0 0 0 0 0 0 0 STD5.60
2026-02-07 22:13:43 23 17.80 0.115000 41.649648 41.62752893 0 0 0 0 0 0 0 0 STD5.60
2026-02-07 22:08:38 20 18.60 0.100000 41.649648 41.62752893 0 0 0 0 0 0 0 0 STD5.60
2026-02-07 22:03:36 19 21.90 0.095000 41.649648 41.62752893 0 0 0 0 0 0 0 0 STD5.60
2026-02-07 21:58:35 23 21.20 0.115000 41.649648 41.62752893 0 0 0 0 0 0 0 0 STD5.60
2026-02-07 21:53:32 19 16.90 0.095000 41.649648 41.62752893 0 0 0 0 0 0 0 0 STD5.60
2026-02-07 21:48:30 12 16.40 0.060000 41.649648 41.62752893 0 0 0 0 0 0 0 0 STD5.60
2026-02-07 21:43:29 16 17.90 0.080000 41.649648 41.62752893 0 0 0 0 0 0 0 0 STD5.60
2026-02-07 21:38:26 15 17.30 0.075000 41.649648 41.62752893 0 0 0 0 0 0 0 0 STD5.60
2026-02-07 21:33:25 13 16.50 0.065000 41.649648 41.62752893 0 0 0 0 0 0 0 0 STD5.60
2026-02-07 21:28:22 12 16.20 0.060000 41.649648 41.62752893 0 0 0 0 0 0 0 0 STD5.60
2026-02-07 21:23:21 9 16.40 0.045000 41.649648 41.62752893 0 0 0 0 0 0 0 0 STD5.60
2026-02-07 21:18:18 11 16.70 0.055000 41.649648 41.62752893 0 0 0 0 0 0 0 0 STD5.60
2026-02-07 21:13:17 11 17.00 0.055000 41.649648 41.62752893 0 0 0 0 0 0 0 0 STD5.60
2026-02-07 21:08:12 16 17.70 0.080000 41.649648 41.62752893 0 0 0 0 0 0 0 0 STD5.60
2026-02-07 21:03:10 21 15.90 0.105000 41.649648 41.62752893 0 0 0 0 0 0 0 0 STD5.60
2026-02-07 20:58:07 8 16.30 0.040000 41.649648 41.62752893 0 0 0 0 0 0 0 0 STD5.60
2026-02-07 20:53:06 27 17.90 0.135000 41.649648 41.62752893 0 0 0 0 0 0 0 0 STD5.60
2026-02-07 20:48:03 24 17.30 0.120000 41.649648 41.62752893 0 0 0 0 0 0 0 0 STD5.60
2026-02-07 20:43:00 19 18.10 0.095000 41.649648 41.62752893 0 0 0 0 0 0 0 0 STD5.60
2026-02-07 20:37:58 15 17.30 0.075000 41.649648 41.62752893 0 0 0 0 0 0 0 0 STD5.60
2026-02-07 20:32:56 17 16.50 0.085000 41.649648 41.62752893 0 0 0 0 0 0 0 0 STD5.60
2026-02-07 20:27:53 18 16.50 0.090000 41.649648 41.62752893 0 0 0 0 0 0 0 0 STD5.60
2026-02-07 20:22:52 14 16.00 0.070000 41.649648 41.62752893 0 0 0 0 0 0 0 0 STD5.60
2026-02-07 20:17:49 15 15.60 0.075000 41.649648 41.62752893 0 0 0 0 0 0 0 0 STD5.60
2026-02-07 20:12:45 15 17.20 0.075000 41.649648 41.62752893 0 0 0 0 0 0 0 0 STD5.60
2026-02-07 20:07:44 18 15.70 0.090000 41.649648 41.62752893 0 0 0 0 0 0 0 0 STD5.60
2026-02-07 20:02:41 6 14.60 0.030000 41.649648 41.62752893 0 0 0 0 0 0 0 0 STD5.60
2026-02-07 19:57:39 23 17.70 0.115000 41.649648 41.62752893 0 0 0 0 0 0 0 0 STD5.60
2026-02-07 19:52:38 16 18.30 0.080000 41.649648 41.62752893 0 0 0 0 0 0 0 0 STD5.60
2026-02-07 19:47:36 21 19.50 0.105000 41.649648 41.62752893 0 0 0 0 0 0 0 0 STD5.60
2026-02-07 19:42:34 30 20.40 0.150000 41.649648 41.62752893 0 0 0 0 0 0 0 0 STD5.60
2026-02-07 19:37:32 13 18.90 0.065000 41.649648 41.62752893 0 0 0 0 0 0 0 0 STD5.60
2026-02-07 19:32:30 20 17.20 0.100000 41.649648 41.62752893 0 0 0 0 0 0 0 0 STD5.60
2026-02-07 19:27:27 11 16.10 0.055000 41.649648 41.62752893 0 0 0 0 0 0 0 0 STD5.60
2026-02-07 19:22:26 11 16.30 0.055000 41.649648 41.62752893 0 0 0 0 0 0 0 0 STD5.60
2026-02-07 19:17:23 18 16.50 0.090000 41.649648 41.62752893 0 0 0 0 0 0 0 0 STD5.60
2026-02-07 19:12:18 9 15.50 0.045000 41.649648 41.62752893 0 0 0 0 0 0 0 0 STD5.60
2026-02-07 19:07:16 20 15.70 0.100000 41.649648 41.62752893 0 0 0 0 0 0 0 0 STD5.60
2026-02-07 19:02:14 15 16.80 0.075000 41.649648 41.62752893 0 0 0 0 0 0 0 0 STD5.60
2026-02-07 18:57:11 16 18.00 0.080000 41.649648 41.62752893 0 0 0 0 0 0 0 0 STD5.60
2026-02-07 18:52:09 23 18.60 0.115000 41.649648 41.62752893 0 0 0 0 0 0 0 0 STD5.60
2026-02-07 18:47:08 17 17.60 0.085000 41.649648 41.62752893 0 0 0 0 0 0 0 0 STD5.60
2026-02-07 18:42:06 20 18.60 0.100000 41.649648 41.62752893 0 0 0 0 0 0 0 0 STD5.60
2026-02-07 18:37:03 28 19.40 0.140000 41.649648 41.62752893 0 0 0 0 0 0 0 0 STD5.60
2026-02-07 18:32:03 16 17.90 0.080000 41.649648 41.62752893 0 0 0 0 0 0 0 0 STD5.60
2026-02-07 18:26:59 9 16.70 0.045000 41.649648 41.62752893 0 0 0 0 0 0 0 0 STD5.60
2026-02-07 18:21:56 14 15.50 0.070000 41.649648 41.62752893 0 0 0 0 0 0 0 0 STD5.60
2026-02-07 18:16:54 14 17.40 0.070000 41.649648 41.62752893 0 0 0 0 0 0 0 0 STD5.60
2026-02-07 18:11:50 19 17.50 0.095000 41.649648 41.62752893 0 0 0 0 0 0 0 0 STD5.60
2026-02-07 18:06:48 17 17.70 0.085000 41.649648 41.62752893 0 0 0 0 0 0 0 0 STD5.60
2026-02-07 18:01:46 13 19.30 0.065000 41.649648 41.62752893 0 0 0 0 0 0 0 0 STD5.60
2026-02-07 17:56:44 23 19.70 0.115000 41.649648 41.62752893 0 0 0 0 0 0 0 0 STD5.60
2026-02-07 17:51:42 15 19.00 0.075000 41.649648 41.62752893 0 0 0 0 0 0 0 0 STD5.60
2026-02-07 17:46:40 21 17.50 0.105000 41.649648 41.62752893 0 0 0 0 0 0 0 0 STD5.60
2026-02-07 17:41:38 20 18.40 0.100000 41.649648 41.62752893 0 0 0 0 0 0 0 0 STD5.60
2026-02-07 17:36:36 17 18.80 0.085000 41.649648 41.62752893 0 0 0 0 0 0 0 0 STD5.60
2026-02-07 17:31:34 16 17.10 0.080000 41.649648 41.62752893 0 0 0 0 0 0 0 0 STD5.60
2026-02-07 17:26:32 20 16.80 0.100000 41.649648 41.62752893 0 0 0 0 0 0 0 0 STD5.60
2026-02-07 17:21:30 18 17.80 0.090000 41.649648 41.62752893 0 0 0 0 0 0 0 0 STD5.60
2026-02-07 17:16:27 11 18.10 0.055000 41.649648 41.62752893 0 0 0 0 0 0 0 0 STD5.60
2026-02-07 17:11:23 23 17.70 0.115000 41.649648 41.62752893 0 0 0 0 0 0 0 0 STD5.60
2026-02-07 17:06:22 16 17.70 0.080000 41.649648 41.62752893 0 0 0 0 0 0 0 0 STD5.60
2026-02-07 17:01:19 17 17.60 0.085000 41.649648 41.62752893 0 0 0 0 0 0 0 0 STD5.60
2026-02-07 16:56:17 16 16.30 0.080000 41.649648 41.62752893 0 0 0 0 0 0 0 0 STD5.60
2026-02-07 16:51:16 16 16.40 0.080000 41.649648 41.62752893 0 0 0 0 0 0 0 0 STD5.60
2026-02-07 16:46:13 19 17.30 0.095000 41.649648 41.62752893 0 0 0 0 0 0 0 0 STD5.60
2026-02-07 16:41:12 20 17.40 0.100000 41.649648 41.62752893 0 0 0 0 0 0 0 0 STD5.60
2026-02-07 16:36:09 21 19.10 0.105000 41.649648 41.62752893 0 0 0 0 0 0 0 0 STD5.60
2026-02-07 16:31:07 21 19.00 0.105000 41.649648 41.62752893 0 0 0 0 0 0 0 0 STD5.60
2026-02-07 16:26:05 11 18.50 0.055000 41.649648 41.62752893 0 0 0 0 0 0 0 0 STD5.60
2026-02-07 16:21:04 14 17.90 0.070000 41.649648 41.62752893 0 0 0 0 0 0 0 0 STD5.60
2026-02-07 16:16:02 20 17.70 0.100000 41.649648 41.62752893 0 0 0 0 0 0 0 0 STD5.60
2026-02-07 16:10:57 24 19.20 0.120000 41.649648 41.62752893 0 0 0 0 0 0 0 0 STD5.60
2026-02-07 16:05:55 11 18.70 0.055000 41.649648 41.62752893 0 0 0 0 0 0 0 0 STD5.60
2026-02-07 16:00:53 12 18.00 0.060000 41.649648 41.62752893 0 0 0 0 0 0 0 0 STD5.60
2026-02-07 15:55:51 17 18.50 0.085000 41.649648 41.62752893 0 0 0 0 0 0 0 0 STD5.60
2026-02-07 15:50:49 26 18.80 0.130000 41.649648 41.62752893 0 0 0 0 0 0 0 0 STD5.60
2026-02-07 15:45:47 9 19.30 0.045000 41.649648 41.62752893 0 0 0 0 0 0 0 0 STD5.60
2026-02-07 15:40:45 17 18.50 0.085000 41.649648 41.62752893 0 0 0 0 0 0 0 0 STD5.60
2026-02-07 15:35:42 19 16.60 0.095000 41.649648 41.62752893 0 0 0 0 0 0 0 0 STD5.60
2026-02-07 15:30:41 17 16.50 0.085000 41.649648 41.62752893 0 0 0 0 0 0 0 0 STD5.60
2026-02-07 15:25:39 16 18.00 0.080000 41.649648 41.62752893 0 0 0 0 0 0 0 0 STD5.60
2026-02-07 15:20:36 25 18.90 0.125000 41.649648 41.62752893 0 0 0 0 0 0 0 0 STD5.60
2026-02-07 15:15:35 16 19.00 0.080000 41.649648 41.62752893 0 0 0 0 0 0 0 0 STD5.60
2026-02-07 15:10:32 23 18.30 0.115000 41.649648 41.62752893 0 0 0 0 0 0 0 0 STD5.60
2026-02-07 15:05:28 19 16.90 0.095000 41.649648 41.62752893 0 0 0 0 0 0 0 0 STD5.60
2026-02-07 15:00:27 16 17.20 0.080000 41.649648 41.62752893 0 0 0 0 0 0 0 0 STD5.60
2026-02-07 14:55:24 14 17.50 0.070000 41.649648 41.62752893 0 0 0 0 0 0 0 0 STD5.60
2026-02-07 14:50:23 13 17.80 0.065000 41.649648 41.62752893 0 0 0 0 0 0 0 0 STD5.60
2026-02-07 14:45:20 13 17.40 0.065000 41.649648 41.62752893 0 0 0 0 0 0 0 0 STD5.60
2026-02-07 14:40:19 11 16.20 0.055000 41.649648 41.62752893 0 0 0 0 0 0 0 0 STD5.60
2026-02-07 14:35:16 25 17.60 0.125000 41.649648 41.62752893 0 0 0 0 0 0 0 0 STD5.60
2026-02-07 14:30:16 19 19.20 0.095000 41.649648 41.62752893 0 0 0 0 0 0 0 0 STD5.60
2026-02-07 14:25:13 21 18.90 0.105000 41.649648 41.62752893 0 0 0 0 0 0 0 0 STD5.60
2026-02-07 14:20:11 16 18.90 0.080000 41.649648 41.62752893 0 0 0 0 0 0 0 0 STD5.60
2026-02-07 14:15:09 14 20.30 0.070000 41.649648 41.62752893 0 0 0 0 0 0 0 0 STD5.60
2026-02-07 14:09:54 25 20.30 0.125000 41.649648 41.62752893 0 0 0 0 0 0 0 0 STD5.60
2026-02-07 14:04:52 13 20.20 0.065000 41.649648 41.62752893 0 0 0 0 0 0 0 0 STD5.60
2026-02-07 13:59:52 24 19.80 0.120000 41.649648 41.62752893 0 0 0 0 0 0 0 0 STD5.60
2026-02-07 13:54:47 21 19.20 0.105000 41.649648 41.62752893 0 0 0 0 0 0 0 0 STD5.60
2026-02-07 13:49:46 22 20.40 0.110000 41.649648 41.62752893 0 0 0 0 0 0 0 0 STD5.60
2026-02-07 13:44:43 13 18.50 0.065000 41.649648 41.62752893 0 0 0 0 0 0 0 0 STD5.60
2026-02-07 13:39:42 16 17.60 0.080000 41.649648 41.62752893 0 0 0 0 0 0 0 0 STD5.60
2026-02-07 13:34:42 18 18.20 0.090000 41.649648 41.62752893 0 0 0 0 0 0 0 0 STD5.60
2026-02-07 13:29:37 24 18.50 0.120000 41.649648 41.62752893 0 0 0 0 0 0 0 0 STD5.60
2026-02-07 13:24:35 13 18.10 0.065000 41.649648 41.62752893 0 0 0 0 0 0 0 0 STD5.60
2026-02-07 13:19:33 25 18.20 0.125000 41.649648 41.62752893 0 0 0 0 0 0 0 0 STD5.60
2026-02-07 13:14:31 15 18.00 0.075000 41.649648 41.62752893 0 0 0 0 0 0 0 0 STD5.60
2026-02-07 13:09:27 16 16.10 0.080000 41.649648 41.62752893 0 0 0 0 0 0 0 0 STD5.60
2026-02-07 13:04:27 19 17.10 0.095000 41.649648 41.62752893 0 0 0 0 0 0 0 0 STD5.60
2026-02-07 12:59:23 16 18.70 0.080000 41.649648 41.62752893 0 0 0 0 0 0 0 0 STD5.60
2026-02-07 12:54:21 22 18.30 0.110000 41.649648 41.62752893 0 0 0 0 0 0 0 0 STD5.60
2026-02-07 12:49:19 13 19.40 0.065000 41.649648 41.62752893 0 0 0 0 0 0 0 0 STD5.60
2026-02-07 12:44:17 20 19.20 0.100000 41.649648 41.62752893 0 0 0 0 0 0 0 0 STD5.60
2026-02-07 12:39:15 20 17.80 0.100000 41.649648 41.62752893 0 0 0 0 0 0 0 0 STD5.60
2026-02-07 12:34:13 19 18.90 0.095000 41.649648 41.62752893 0 0 0 0 0 0 0 0 STD5.60
2026-02-07 12:29:11 23 19.00 0.115000 41.649648 41.62752893 0 0 0 0 0 0 0 0 STD5.60
2026-02-07 12:24:08 17 19.50 0.085000 41.649648 41.62752893 0 0 0 0 0 0 0 0 STD5.60
2026-02-07 12:19:06 17 16.60 0.085000 41.649648 41.62752893 0 0 0 0 0 0 0 0 STD5.60
2026-02-07 12:14:04 21 6.50 0.105000 41.649648 41.62752893 0 0 0 0 0 0 0 0 STD5.60
2026-02-07 12:08:59 20 18.00 0.100000 41.649648 41.62752893 0 0 0 0 0 0 0 0 STD5.60
2026-02-07 12:03:57 21 17.80 0.105000 41.649648 41.62752893 0 0 0 0 0 0 0 0 STD5.60
2026-02-07 11:58:55 22 18.20 0.110000 41.649648 41.62752893 0 0 0 0 0 0 0 0 STD5.60
2026-02-07 11:53:53 20 18.70 0.100000 41.649648 41.62752893 0 0 0 0 0 0 0 0 STD5.60
2026-02-07 11:48:51 22 18.20 0.110000 41.649648 41.62752893 0 0 0 0 0 0 0 0 STD5.60
2026-02-07 11:43:49 19 17.00 0.095000 41.649648 41.62752893 0 0 0 0 0 0 0 0 STD5.60
2026-02-07 11:38:47 21 18.40 0.105000 41.649648 41.62752893 0 0 0 0 0 0 0 0 STD5.60
2026-02-07 11:33:45 25 19.60 0.125000 41.649648 41.62752893 0 0 0 0 0 0 0 0 STD5.60
2026-02-07 11:28:43 10 18.80 0.050000 41.649648 41.62752893 0 0 0 0 0 0 0 0 STD5.60
2026-02-07 11:23:41 17 19.70 0.085000 41.649648 41.62752893 0 0 0 0 0 0 0 0 STD5.60
2026-02-07 11:18:39 21 20.10 0.105000 41.649648 41.62752893 0 0 0 0 0 0 0 0 STD5.60
2026-02-07 11:13:37 26 17.80 0.130000 41.649648 41.62752893 0 0 0 0 0 0 0 0 STD5.60
2026-02-07 11:08:32 18 16.40 0.090000 41.649648 41.62752893 0 0 0 0 0 0 0 0 STD5.60
2026-02-07 11:03:30 14 18.20 0.070000 41.649648 41.62752893 0 0 0 0 0 0 0 0 STD5.60
2026-02-07 10:58:29 20 16.80 0.100000 41.649648 41.62752893 0 0 0 0 0 0 0 0 STD5.60
2026-02-07 10:53:26 18 16.00 0.090000 41.649648 41.62752893 0 0 0 0 0 0 0 0 STD5.60
2026-02-07 10:48:24 20 18.20 0.100000 41.649648 41.62752893 0 0 0 0 0 0 0 0 STD5.60
2026-02-07 10:43:22 16 17.30 0.080000 41.649648 41.62752893 0 0 0 0 0 0 0 0 STD5.60
2026-02-07 10:38:20 17 16.00 0.085000 41.649648 41.62752893 0 0 0 0 0 0 0 0 STD5.60
2026-02-07 10:33:18 13 16.00 0.065000 41.649648 41.62752893 0 0 0 0 0 0 0 0 STD5.60
2026-02-07 10:28:16 18 18.10 0.090000 41.649648 41.62752893 0 0 0 0 0 0 0 0 STD5.60
2026-02-07 10:23:14 13 19.80 0.065000 41.649648 41.62752893 0 0 0 0 0 0 0 0 STD5.60
2026-02-07 10:18:12 21 17.50 0.105000 41.649648 41.62752893 0 0 0 0 0 0 0 0 STD5.60
2026-02-07 10:13:10 19 18.30 0.095000 41.649648 41.62752893 0 0 0 0 0 0 0 0 STD5.60
2026-02-07 10:08:05 21 18.70 0.105000 41.649648 41.62752893 0 0 0 0 0 0 0 0 STD5.60
2026-02-07 10:03:03 16 18.90 0.080000 41.649648 41.62752893 0 0 0 0 0 0 0 0 STD5.60
2026-02-07 09:58:01 21 20.00 0.105000 41.649648 41.62752893 0 0 0 0 0 0 0 0 STD5.60
2026-02-07 09:52:59 17 18.30 0.085000 41.649648 41.62752893 0 0 0 0 0 0 0 0 STD5.60
2026-02-07 09:47:56 21 17.70 0.105000 41.649648 41.62752893 0 0 0 0 0 0 0 0 STD5.60
2026-02-07 09:42:54 14 17.80 0.070000 41.649648 41.62752893 0 0 0 0 0 0 0 0 STD5.60
2026-02-07 09:37:52 19 17.40 0.095000 41.649648 41.62752893 0 0 0 0 0 0 0 0 STD5.60
2026-02-07 09:32:50 18 17.20 0.090000 41.649648 41.62752893 0 0 0 0 0 0 0 0 STD5.60
2026-02-07 09:27:48 16 18.40 0.080000 41.649648 41.62752893 0 0 0 0 0 0 0 0 STD5.60
2026-02-07 09:22:46 18 16.20 0.090000 41.649648 41.62752893 0 0 0 0 0 0 0 0 STD5.60
2026-02-07 09:17:44 12 14.40 0.060000 41.649648 41.62752893 0 0 0 0 0 0 0 0 STD5.60
2026-02-07 09:12:43 15 18.60 0.075000 41.649648 41.62752893 0 0 0 0 0 0 0 0 STD5.60
2026-02-07 09:07:39 23 21.10 0.115000 41.649648 41.62752893 0 0 0 0 0 0 0 0 STD5.60
2026-02-07 09:02:36 19 18.60 0.095000 41.649648 41.62752893 0 0 0 0 0 0 0 0 STD5.60
2026-02-07 08:57:34 16 17.50 0.080000 41.649648 41.62752893 0 0 0 0 0 0 0 0 STD5.60
2026-02-07 08:52:32 12 16.90 0.060000 41.649648 41.62752893 0 0 0 0 0 0 0 0 STD5.60
2026-02-07 08:47:30 13 18.70 0.065000 41.649648 41.62752893 0 0 0 0 0 0 0 0 STD5.60
2026-02-07 08:42:28 18 19.10 0.090000 41.649648 41.62752893 0 0 0 0 0 0 0 0 STD5.60
2026-02-07 08:37:25 15 17.00 0.075000 41.649648 41.62752893 0 0 0 0 0 0 0 0 STD5.60
2026-02-07 08:32:23 22 18.40 0.110000 41.649648 41.62752893 0 0 0 0 0 0 0 0 STD5.60
2026-02-07 08:27:21 17 18.90 0.085000 41.649648 41.62752893 0 0 0 0 0 0 0 0 STD5.60
Geiger Counter World Map       A real time radiation map.     Copyright 2015 All rights reserved.